sensor_id;sensor_type;location;lat;lon;timestamp;P1;durP1;ratioP1;P2;durP2;ratioP2
31638;SDS011;18248;51.522;7.020;2024-03-08T00:00:45;31.73;;;17.80;;
31638;SDS011;18248;51.522;7.020;2024-03-08T00:03:44;35.35;;;20.88;;
31638;SDS011;18248;51.522;7.020;2024-03-08T00:06:42;33.85;;;20.92;;
31638;SDS011;18248;51.522;7.020;2024-03-08T00:09:43;40.22;;;20.20;;
31638;SDS011;18248;51.522;7.020;2024-03-08T00:12:45;28.40;;;17.08;;
31638;SDS011;18248;51.522;7.020;2024-03-08T00:15:44;34.97;;;18.52;;
31638;SDS011;18248;51.522;7.020;2024-03-08T00:18:42;31.77;;;19.77;;
31638;SDS011;18248;51.522;7.020;2024-03-08T00:21:41;31.85;;;19.42;;
31638;SDS011;18248;51.522;7.020;2024-03-08T00:24:40;40.47;;;22.95;;
31638;SDS011;18248;51.522;7.020;2024-03-08T00:27:38;36.67;;;21.45;;
31638;SDS011;18248;51.522;7.020;2024-03-08T00:30:37;31.38;;;19.20;;
31638;SDS011;18248;51.522;7.020;2024-03-08T00:33:35;35.78;;;21.17;;
31638;SDS011;18248;51.522;7.020;2024-03-08T00:36:34;40.30;;;23.50;;
31638;SDS011;18248;51.522;7.020;2024-03-08T00:39:33;29.52;;;18.35;;
31638;SDS011;18248;51.522;7.020;2024-03-08T00:42:31;36.50;;;22.45;;
31638;SDS011;18248;51.522;7.020;2024-03-08T00:45:31;31.83;;;19.10;;
31638;SDS011;18248;51.522;7.020;2024-03-08T00:48:29;36.28;;;20.52;;
31638;SDS011;18248;51.522;7.020;2024-03-08T00:51:29;32.58;;;19.48;;
31638;SDS011;18248;51.522;7.020;2024-03-08T00:54:27;33.75;;;20.05;;
31638;SDS011;18248;51.522;7.020;2024-03-08T00:57:26;29.05;;;18.55;;
31638;SDS011;18248;51.522;7.020;2024-03-08T01:00:25;31.55;;;18.85;;
31638;SDS011;18248;51.522;7.020;2024-03-08T01:03:24;36.97;;;22.10;;
31638;SDS011;18248;51.522;7.020;2024-03-08T01:06:23;35.20;;;22.17;;
31638;SDS011;18248;51.522;7.020;2024-03-08T01:09:25;33.05;;;19.35;;
31638;SDS011;18248;51.522;7.020;2024-03-08T01:12:24;40.08;;;24.20;;
31638;SDS011;18248;51.522;7.020;2024-03-08T01:15:23;40.75;;;24.67;;
31638;SDS011;18248;51.522;7.020;2024-03-08T01:18:22;34.50;;;20.73;;
31638;SDS011;18248;51.522;7.020;2024-03-08T01:21:20;37.55;;;22.52;;
31638;SDS011;18248;51.522;7.020;2024-03-08T01:24:20;38.63;;;24.35;;
31638;SDS011;18248;51.522;7.020;2024-03-08T01:27:18;41.95;;;25.05;;
31638;SDS011;18248;51.522;7.020;2024-03-08T01:30:17;35.40;;;21.55;;
31638;SDS011;18248;51.522;7.020;2024-03-08T01:33:15;35.97;;;20.77;;
31638;SDS011;18248;51.522;7.020;2024-03-08T01:36:14;35.47;;;21.45;;
31638;SDS011;18248;51.522;7.020;2024-03-08T01:39:13;32.22;;;20.20;;
31638;SDS011;18248;51.522;7.020;2024-03-08T01:42:12;42.25;;;23.40;;
31638;SDS011;18248;51.522;7.020;2024-03-08T01:45:13;51.30;;;25.17;;
31638;SDS011;18248;51.522;7.020;2024-03-08T01:48:12;45.05;;;27.63;;
31638;SDS011;18248;51.522;7.020;2024-03-08T01:51:11;38.03;;;22.33;;
31638;SDS011;18248;51.522;7.020;2024-03-08T01:54:12;35.50;;;22.15;;
31638;SDS011;18248;51.522;7.020;2024-03-08T01:57:13;41.88;;;25.30;;
31638;SDS011;18248;51.522;7.020;2024-03-08T02:00:13;37.72;;;23.65;;
31638;SDS011;18248;51.522;7.020;2024-03-08T02:03:12;39.15;;;24.02;;
31638;SDS011;18248;51.522;7.020;2024-03-08T02:06:11;39.38;;;23.17;;
31638;SDS011;18248;51.522;7.020;2024-03-08T02:09:12;39.25;;;24.00;;
31638;SDS011;18248;51.522;7.020;2024-03-08T02:12:10;38.63;;;21.95;;
31638;SDS011;18248;51.522;7.020;2024-03-08T02:15:09;36.80;;;21.85;;
31638;SDS011;18248;51.522;7.020;2024-03-08T02:18:08;35.78;;;21.98;;
31638;SDS011;18248;51.522;7.020;2024-03-08T02:21:07;39.08;;;21.95;;
31638;SDS011;18248;51.522;7.020;2024-03-08T02:24:06;50.20;;;28.27;;
31638;SDS011;18248;51.522;7.020;2024-03-08T02:27:05;36.47;;;21.70;;
31638;SDS011;18248;51.522;7.020;2024-03-08T02:30:04;43.50;;;26.65;;
31638;SDS011;18248;51.522;7.020;2024-03-08T02:33:04;49.42;;;30.23;;
31638;SDS011;18248;51.522;7.020;2024-03-08T02:36:03;39.75;;;23.58;;
31638;SDS011;18248;51.522;7.020;2024-03-08T02:39:02;43.58;;;27.67;;
31638;SDS011;18248;51.522;7.020;2024-03-08T02:42:01;42.50;;;22.63;;
31638;SDS011;18248;51.522;7.020;2024-03-08T02:44:59;37.85;;;22.05;;
31638;SDS011;18248;51.522;7.020;2024-03-08T02:47:58;42.08;;;23.83;;
31638;SDS011;18248;51.522;7.020;2024-03-08T02:50:56;53.13;;;26.75;;
31638;SDS011;18248;51.522;7.020;2024-03-08T02:53:55;37.92;;;22.33;;
31638;SDS011;18248;51.522;7.020;2024-03-08T02:56:54;44.45;;;25.60;;
31638;SDS011;18248;51.522;7.020;2024-03-08T02:59:55;41.80;;;25.05;;
31638;SDS011;18248;51.522;7.020;2024-03-08T03:02:54;45.55;;;27.15;;
31638;SDS011;18248;51.522;7.020;2024-03-08T03:05:53;46.92;;;27.00;;
31638;SDS011;18248;51.522;7.020;2024-03-08T03:08:54;42.28;;;23.75;;
31638;SDS011;18248;51.522;7.020;2024-03-08T03:12:01;38.58;;;22.02;;
31638;SDS011;18248;51.522;7.020;2024-03-08T03:15:00;46.50;;;25.17;;
31638;SDS011;18248;51.522;7.020;2024-03-08T03:17:59;40.58;;;24.45;;
31638;SDS011;18248;51.522;7.020;2024-03-08T03:20:58;43.00;;;25.08;;
31638;SDS011;18248;51.522;7.020;2024-03-08T03:23:57;51.25;;;27.98;;
31638;SDS011;18248;51.522;7.020;2024-03-08T03:26:57;46.42;;;26.42;;
31638;SDS011;18248;51.522;7.020;2024-03-08T03:29:55;52.38;;;28.52;;
31638;SDS011;18248;51.522;7.020;2024-03-08T03:32:55;51.30;;;27.70;;
31638;SDS011;18248;51.522;7.020;2024-03-08T03:35:56;45.00;;;27.58;;
31638;SDS011;18248;51.522;7.020;2024-03-08T03:38:55;47.30;;;26.40;;
31638;SDS011;18248;51.522;7.020;2024-03-08T03:42:10;47.53;;;26.25;;
31638;SDS011;18248;51.522;7.020;2024-03-08T03:45:09;41.28;;;23.13;;
31638;SDS011;18248;51.522;7.020;2024-03-08T03:48:07;42.90;;;25.30;;
31638;SDS011;18248;51.522;7.020;2024-03-08T03:51:09;41.63;;;23.98;;
31638;SDS011;18248;51.522;7.020;2024-03-08T03:54:08;60.53;;;31.65;;
31638;SDS011;18248;51.522;7.020;2024-03-08T03:57:06;47.47;;;26.73;;
31638;SDS011;18248;51.522;7.020;2024-03-08T04:00:06;49.03;;;27.63;;
31638;SDS011;18248;51.522;7.020;2024-03-08T04:03:08;48.63;;;28.38;;
31638;SDS011;18248;51.522;7.020;2024-03-08T04:06:07;41.33;;;25.08;;
31638;SDS011;18248;51.522;7.020;2024-03-08T04:09:06;54.72;;;30.23;;
31638;SDS011;18248;51.522;7.020;2024-03-08T04:12:04;47.33;;;28.02;;
31638;SDS011;18248;51.522;7.020;2024-03-08T04:15:03;53.58;;;29.20;;
31638;SDS011;18248;51.522;7.020;2024-03-08T04:18:05;53.20;;;29.35;;
31638;SDS011;18248;51.522;7.020;2024-03-08T04:21:04;47.88;;;26.98;;
31638;SDS011;18248;51.522;7.020;2024-03-08T04:24:06;43.05;;;24.20;;
31638;SDS011;18248;51.522;7.020;2024-03-08T04:27:04;53.25;;;29.40;;
31638;SDS011;18248;51.522;7.020;2024-03-08T04:30:04;46.65;;;26.30;;
31638;SDS011;18248;51.522;7.020;2024-03-08T04:33:05;49.03;;;26.58;;
31638;SDS011;18248;51.522;7.020;2024-03-08T04:36:07;52.97;;;29.42;;
31638;SDS011;18248;51.522;7.020;2024-03-08T04:39:06;44.65;;;26.80;;
31638;SDS011;18248;51.522;7.020;2024-03-08T04:42:10;46.72;;;27.83;;
31638;SDS011;18248;51.522;7.020;2024-03-08T04:45:08;48.55;;;26.45;;
31638;SDS011;18248;51.522;7.020;2024-03-08T04:48:08;43.45;;;24.90;;
31638;SDS011;18248;51.522;7.020;2024-03-08T04:51:07;46.83;;;26.67;;
31638;SDS011;18248;51.522;7.020;2024-03-08T04:54:06;41.50;;;24.70;;
31638;SDS011;18248;51.522;7.020;2024-03-08T04:57:04;42.72;;;23.88;;
31638;SDS011;18248;51.522;7.020;2024-03-08T05:00:03;53.72;;;30.55;;
31638;SDS011;18248;51.522;7.020;2024-03-08T05:03:09;51.47;;;29.67;;
31638;SDS011;18248;51.522;7.020;2024-03-08T05:06:07;48.35;;;26.17;;
31638;SDS011;18248;51.522;7.020;2024-03-08T05:09:06;61.67;;;32.45;;
31638;SDS011;18248;51.522;7.020;2024-03-08T05:12:14;48.90;;;27.65;;
31638;SDS011;18248;51.522;7.020;2024-03-08T05:15:12;49.53;;;26.85;;
31638;SDS011;18248;51.522;7.020;2024-03-08T05:18:11;51.53;;;27.30;;
31638;SDS011;18248;51.522;7.020;2024-03-08T05:21:12;57.22;;;30.45;;
31638;SDS011;18248;51.522;7.020;2024-03-08T05:24:11;44.22;;;25.20;;
31638;SDS011;18248;51.522;7.020;2024-03-08T05:27:11;62.75;;;34.75;;
31638;SDS011;18248;51.522;7.020;2024-03-08T05:30:11;58.90;;;32.47;;
31638;SDS011;18248;51.522;7.020;2024-03-08T05:33:12;45.80;;;26.67;;
31638;SDS011;18248;51.522;7.020;2024-03-08T05:36:12;56.75;;;31.17;;
31638;SDS011;18248;51.522;7.020;2024-03-08T05:39:13;53.70;;;27.50;;
31638;SDS011;18248;51.522;7.020;2024-03-08T05:42:11;46.85;;;27.90;;
31638;SDS011;18248;51.522;7.020;2024-03-08T05:45:10;51.17;;;28.25;;
31638;SDS011;18248;51.522;7.020;2024-03-08T05:48:09;49.97;;;26.00;;
31638;SDS011;18248;51.522;7.020;2024-03-08T05:51:07;50.10;;;27.58;;
31638;SDS011;18248;51.522;7.020;2024-03-08T05:54:06;47.38;;;26.38;;
31638;SDS011;18248;51.522;7.020;2024-03-08T05:57:09;46.90;;;27.67;;
31638;SDS011;18248;51.522;7.020;2024-03-08T06:00:08;43.95;;;25.48;;
31638;SDS011;18248;51.522;7.020;2024-03-08T06:03:13;58.00;;;30.20;;
31638;SDS011;18248;51.522;7.020;2024-03-08T06:06:12;48.92;;;28.27;;
31638;SDS011;18248;51.522;7.020;2024-03-08T06:09:11;49.85;;;26.70;;
31638;SDS011;18248;51.522;7.020;2024-03-08T06:12:14;47.65;;;26.13;;
31638;SDS011;18248;51.522;7.020;2024-03-08T06:15:16;45.90;;;26.60;;
31638;SDS011;18248;51.522;7.020;2024-03-08T06:18:15;59.50;;;31.80;;
31638;SDS011;18248;51.522;7.020;2024-03-08T06:21:13;56.45;;;31.45;;
31638;SDS011;18248;51.522;7.020;2024-03-08T06:24:14;50.88;;;29.30;;
31638;SDS011;18248;51.522;7.020;2024-03-08T06:27:13;47.80;;;27.88;;
31638;SDS011;18248;51.522;7.020;2024-03-08T06:30:12;55.95;;;30.15;;
31638;SDS011;18248;51.522;7.020;2024-03-08T06:33:10;48.67;;;26.33;;
31638;SDS011;18248;51.522;7.020;2024-03-08T06:36:09;52.10;;;30.27;;
31638;SDS011;18248;51.522;7.020;2024-03-08T06:39:09;57.95;;;29.35;;
31638;SDS011;18248;51.522;7.020;2024-03-08T06:42:08;48.88;;;28.17;;
31638;SDS011;18248;51.522;7.020;2024-03-08T06:45:08;55.28;;;30.23;;
31638;SDS011;18248;51.522;7.020;2024-03-08T06:48:08;56.38;;;31.05;;
31638;SDS011;18248;51.522;7.020;2024-03-08T06:51:07;45.67;;;25.83;;
31638;SDS011;18248;51.522;7.020;2024-03-08T06:54:06;47.45;;;27.65;;
31638;SDS011;18248;51.522;7.020;2024-03-08T06:57:06;58.83;;;33.88;;
31638;SDS011;18248;51.522;7.020;2024-03-08T07:00:05;60.78;;;29.60;;
31638;SDS011;18248;51.522;7.020;2024-03-08T07:03:09;50.40;;;28.48;;
31638;SDS011;18248;51.522;7.020;2024-03-08T07:06:10;51.45;;;28.92;;
31638;SDS011;18248;51.522;7.020;2024-03-08T07:09:09;51.00;;;30.73;;
31638;SDS011;18248;51.522;7.020;2024-03-08T07:12:07;56.83;;;28.70;;
31638;SDS011;18248;51.522;7.020;2024-03-08T07:15:06;50.47;;;27.92;;
31638;SDS011;18248;51.522;7.020;2024-03-08T07:18:05;48.00;;;26.70;;
31638;SDS011;18248;51.522;7.020;2024-03-08T07:21:07;54.33;;;29.73;;
31638;SDS011;18248;51.522;7.020;2024-03-08T07:24:05;62.65;;;31.98;;
31638;SDS011;18248;51.522;7.020;2024-03-08T07:27:27;58.17;;;32.95;;
31638;SDS011;18248;51.522;7.020;2024-03-08T07:38:17;51.88;;;29.52;;
31638;SDS011;18248;51.522;7.020;2024-03-08T07:41:19;54.63;;;30.42;;
31638;SDS011;18248;51.522;7.020;2024-03-08T07:44:18;50.15;;;28.65;;
31638;SDS011;18248;51.522;7.020;2024-03-08T07:47:16;46.67;;;28.80;;
31638;SDS011;18248;51.522;7.020;2024-03-08T07:50:16;59.28;;;31.83;;
31638;SDS011;18248;51.522;7.020;2024-03-08T07:53:14;55.10;;;30.95;;
31638;SDS011;18248;51.522;7.020;2024-03-08T07:56:13;55.20;;;31.92;;
31638;SDS011;18248;51.522;7.020;2024-03-08T07:59:14;52.58;;;30.55;;
31638;SDS011;18248;51.522;7.020;2024-03-08T08:02:13;54.05;;;29.80;;
31638;SDS011;18248;51.522;7.020;2024-03-08T08:05:11;51.33;;;27.98;;
31638;SDS011;18248;51.522;7.020;2024-03-08T08:08:11;54.65;;;29.65;;
31638;SDS011;18248;51.522;7.020;2024-03-08T08:11:10;64.03;;;28.95;;
31638;SDS011;18248;51.522;7.020;2024-03-08T08:17:12;52.95;;;28.50;;
31638;SDS011;18248;51.522;7.020;2024-03-08T08:20:11;51.58;;;29.10;;
31638;SDS011;18248;51.522;7.020;2024-03-08T08:23:11;56.75;;;29.73;;
31638;SDS011;18248;51.522;7.020;2024-03-08T08:26:10;45.70;;;27.58;;
31638;SDS011;18248;51.522;7.020;2024-03-08T08:29:09;50.22;;;29.98;;
31638;SDS011;18248;51.522;7.020;2024-03-08T08:32:07;49.35;;;27.20;;
31638;SDS011;18248;51.522;7.020;2024-03-08T08:35:06;53.00;;;30.40;;
31638;SDS011;18248;51.522;7.020;2024-03-08T08:38:05;51.75;;;29.83;;
31638;SDS011;18248;51.522;7.020;2024-03-08T08:41:05;46.42;;;28.33;;
31638;SDS011;18248;51.522;7.020;2024-03-08T08:44:04;52.22;;;30.15;;
31638;SDS011;18248;51.522;7.020;2024-03-08T08:47:02;56.40;;;30.63;;
31638;SDS011;18248;51.522;7.020;2024-03-08T08:50:02;45.47;;;27.10;;
31638;SDS011;18248;51.522;7.020;2024-03-08T08:53:02;49.83;;;29.85;;
31638;SDS011;18248;51.522;7.020;2024-03-08T08:56:01;51.63;;;29.27;;
31638;SDS011;18248;51.522;7.020;2024-03-08T08:59:00;54.72;;;28.17;;
31638;SDS011;18248;51.522;7.020;2024-03-08T09:01:59;49.25;;;28.65;;
31638;SDS011;18248;51.522;7.020;2024-03-08T09:04:57;45.22;;;26.35;;
31638;SDS011;18248;51.522;7.020;2024-03-08T09:19:41;48.63;;;26.55;;
31638;SDS011;18248;51.522;7.020;2024-03-08T09:22:39;47.83;;;26.77;;
31638;SDS011;18248;51.522;7.020;2024-03-08T09:25:38;54.33;;;27.00;;
31638;SDS011;18248;51.522;7.020;2024-03-08T09:28:37;52.95;;;26.85;;
31638;SDS011;18248;51.522;7.020;2024-03-08T09:31:36;48.72;;;27.70;;
31638;SDS011;18248;51.522;7.020;2024-03-08T09:34:36;42.75;;;26.38;;
31638;SDS011;18248;51.522;7.020;2024-03-08T09:37:34;45.25;;;25.17;;
31638;SDS011;18248;51.522;7.020;2024-03-08T09:40:33;41.53;;;24.88;;
31638;SDS011;18248;51.522;7.020;2024-03-08T09:43:31;45.70;;;25.52;;
31638;SDS011;18248;51.522;7.020;2024-03-08T09:46:31;39.75;;;24.52;;
31638;SDS011;18248;51.522;7.020;2024-03-08T09:49:29;44.70;;;25.65;;
31638;SDS011;18248;51.522;7.020;2024-03-08T09:52:28;47.75;;;27.23;;
31638;SDS011;18248;51.522;7.020;2024-03-08T09:55:29;44.45;;;25.98;;
31638;SDS011;18248;51.522;7.020;2024-03-08T09:58:32;45.45;;;25.75;;
31638;SDS011;18248;51.522;7.020;2024-03-08T10:01:30;42.90;;;25.73;;
31638;SDS011;18248;51.522;7.020;2024-03-08T10:04:29;46.45;;;25.10;;
31638;SDS011;18248;51.522;7.020;2024-03-08T10:07:28;38.38;;;22.35;;
31638;SDS011;18248;51.522;7.020;2024-03-08T10:10:27;42.45;;;24.15;;
31638;SDS011;18248;51.522;7.020;2024-03-08T10:13:26;42.45;;;23.60;;
31638;SDS011;18248;51.522;7.020;2024-03-08T10:16:29;38.72;;;23.63;;
31638;SDS011;18248;51.522;7.020;2024-03-08T10:19:28;42.60;;;24.70;;
31638;SDS011;18248;51.522;7.020;2024-03-08T10:22:27;32.42;;;20.65;;
31638;SDS011;18248;51.522;7.020;2024-03-08T10:25:27;41.55;;;24.27;;
31638;SDS011;18248;51.522;7.020;2024-03-08T10:28:26;37.53;;;22.85;;
31638;SDS011;18248;51.522;7.020;2024-03-08T10:31:26;39.47;;;24.83;;
31638;SDS011;18248;51.522;7.020;2024-03-08T10:34:24;45.97;;;24.25;;
31638;SDS011;18248;51.522;7.020;2024-03-08T10:37:23;41.95;;;24.85;;
31638;SDS011;18248;51.522;7.020;2024-03-08T10:40:22;35.97;;;22.98;;
31638;SDS011;18248;51.522;7.020;2024-03-08T10:43:23;34.28;;;22.73;;
31638;SDS011;18248;51.522;7.020;2024-03-08T10:46:30;36.80;;;23.63;;
31638;SDS011;18248;51.522;7.020;2024-03-08T10:49:44;38.38;;;21.98;;
31638;SDS011;18248;51.522;7.020;2024-03-08T10:53:05;35.65;;;23.10;;
31638;SDS011;18248;51.522;7.020;2024-03-08T10:56:05;40.95;;;23.80;;
31638;SDS011;18248;51.522;7.020;2024-03-08T10:59:05;42.05;;;23.13;;
31638;SDS011;18248;51.522;7.020;2024-03-08T11:02:06;41.15;;;23.83;;
31638;SDS011;18248;51.522;7.020;2024-03-08T11:05:09;40.05;;;24.55;;
31638;SDS011;18248;51.522;7.020;2024-03-08T11:08:18;36.65;;;23.30;;
31638;SDS011;18248;51.522;7.020;2024-03-08T11:11:23;34.55;;;23.08;;
31638;SDS011;18248;51.522;7.020;2024-03-08T11:14:43;34.25;;;22.45;;
31638;SDS011;18248;51.522;7.020;2024-03-08T11:17:45;38.50;;;24.70;;
31638;SDS011;18248;51.522;7.020;2024-03-08T11:20:44;39.05;;;21.73;;
31638;SDS011;18248;51.522;7.020;2024-03-08T11:23:43;32.42;;;20.73;;
31638;SDS011;18248;51.522;7.020;2024-03-08T11:26:45;34.65;;;22.40;;
31638;SDS011;18248;51.522;7.020;2024-03-08T11:29:44;36.65;;;23.00;;
31638;SDS011;18248;51.522;7.020;2024-03-08T11:51:03;33.58;;;22.05;;
31638;SDS011;18248;51.522;7.020;2024-03-08T11:54:02;36.15;;;21.83;;
31638;SDS011;18248;51.522;7.020;2024-03-08T11:57:01;36.70;;;21.67;;
31638;SDS011;18248;51.522;7.020;2024-03-08T12:00:00;34.55;;;21.10;;
31638;SDS011;18248;51.522;7.020;2024-03-08T12:03:05;32.40;;;21.08;;
31638;SDS011;18248;51.522;7.020;2024-03-08T12:06:04;42.38;;;23.20;;
31638;SDS011;18248;51.522;7.020;2024-03-08T12:09:03;33.42;;;21.00;;
31638;SDS011;18248;51.522;7.020;2024-03-08T12:12:02;33.13;;;19.77;;
31638;SDS011;18248;51.522;7.020;2024-03-08T12:15:05;28.70;;;18.48;;
31638;SDS011;18248;51.522;7.020;2024-03-08T12:18:06;30.90;;;20.60;;
31638;SDS011;18248;51.522;7.020;2024-03-08T12:21:09;33.63;;;20.35;;
31638;SDS011;18248;51.522;7.020;2024-03-08T12:24:08;30.27;;;19.60;;
31638;SDS011;18248;51.522;7.020;2024-03-08T12:27:20;29.60;;;20.60;;
31638;SDS011;18248;51.522;7.020;2024-03-08T12:33:20;29.80;;;20.35;;
31638;SDS011;18248;51.522;7.020;2024-03-08T12:36:20;30.60;;;17.95;;
31638;SDS011;18248;51.522;7.020;2024-03-08T12:39:19;28.33;;;19.23;;
31638;SDS011;18248;51.522;7.020;2024-03-08T12:42:25;30.20;;;19.58;;
31638;SDS011;18248;51.522;7.020;2024-03-08T12:45:23;25.27;;;16.92;;
31638;SDS011;18248;51.522;7.020;2024-03-08T12:48:22;27.15;;;18.77;;
31638;SDS011;18248;51.522;7.020;2024-03-08T12:51:21;25.80;;;16.95;;
31638;SDS011;18248;51.522;7.020;2024-03-08T12:54:19;27.67;;;17.52;;
31638;SDS011;18248;51.522;7.020;2024-03-08T12:57:21;26.13;;;16.83;;
31638;SDS011;18248;51.522;7.020;2024-03-08T13:00:20;25.75;;;17.13;;
31638;SDS011;18248;51.522;7.020;2024-03-08T13:03:18;26.55;;;16.73;;
31638;SDS011;18248;51.522;7.020;2024-03-08T13:06:17;25.00;;;15.15;;
31638;SDS011;18248;51.522;7.020;2024-03-08T13:09:15;26.02;;;15.40;;
31638;SDS011;18248;51.522;7.020;2024-03-08T13:12:14;21.52;;;15.15;;
31638;SDS011;18248;51.522;7.020;2024-03-08T13:15:13;23.55;;;14.07;;
31638;SDS011;18248;51.522;7.020;2024-03-08T13:18:18;20.15;;;13.65;;
31638;SDS011;18248;51.522;7.020;2024-03-08T13:21:16;16.98;;;10.98;;
31638;SDS011;18248;51.522;7.020;2024-03-08T13:24:17;17.95;;;10.93;;
31638;SDS011;18248;51.522;7.020;2024-03-08T13:27:16;17.08;;;10.30;;
31638;SDS011;18248;51.522;7.020;2024-03-08T13:30:18;13.38;;;9.80;;
31638;SDS011;18248;51.522;7.020;2024-03-08T13:33:21;16.00;;;9.82;;
31638;SDS011;18248;51.522;7.020;2024-03-08T13:36:20;15.70;;;9.85;;
31638;SDS011;18248;51.522;7.020;2024-03-08T13:39:19;17.95;;;10.75;;
31638;SDS011;18248;51.522;7.020;2024-03-08T13:42:18;15.55;;;10.20;;
31638;SDS011;18248;51.522;7.020;2024-03-08T13:45:17;16.98;;;9.75;;
31638;SDS011;18248;51.522;7.020;2024-03-08T13:48:19;18.30;;;10.35;;
31638;SDS011;18248;51.522;7.020;2024-03-08T13:51:18;13.75;;;9.15;;
31638;SDS011;18248;51.522;7.020;2024-03-08T13:54:18;17.35;;;9.55;;
31638;SDS011;18248;51.522;7.020;2024-03-08T13:57:16;17.27;;;9.77;;
31638;SDS011;18248;51.522;7.020;2024-03-08T14:00:16;14.57;;;9.30;;
31638;SDS011;18248;51.522;7.020;2024-03-08T14:03:15;15.15;;;9.32;;
31638;SDS011;18248;51.522;7.020;2024-03-08T14:06:13;15.90;;;10.48;;
31638;SDS011;18248;51.522;7.020;2024-03-08T14:09:12;16.42;;;11.57;;
31638;SDS011;18248;51.522;7.020;2024-03-08T14:12:15;15.43;;;10.60;;
31638;SDS011;18248;51.522;7.020;2024-03-08T14:15:13;20.88;;;13.32;;
31638;SDS011;18248;51.522;7.020;2024-03-08T14:18:13;21.65;;;12.95;;
31638;SDS011;18248;51.522;7.020;2024-03-08T14:21:12;21.13;;;13.25;;
31638;SDS011;18248;51.522;7.020;2024-03-08T14:24:10;26.13;;;12.95;;
31638;SDS011;18248;51.522;7.020;2024-03-08T14:27:09;18.98;;;13.55;;
31638;SDS011;18248;51.522;7.020;2024-03-08T14:30:08;18.90;;;12.77;;
31638;SDS011;18248;51.522;7.020;2024-03-08T14:33:08;20.85;;;13.57;;
31638;SDS011;18248;51.522;7.020;2024-03-08T14:36:07;22.70;;;14.20;;
31638;SDS011;18248;51.522;7.020;2024-03-08T14:39:06;21.92;;;13.68;;
31638;SDS011;18248;51.522;7.020;2024-03-08T14:42:05;24.02;;;14.60;;
31638;SDS011;18248;51.522;7.020;2024-03-08T14:45:06;20.92;;;13.68;;
31638;SDS011;18248;51.522;7.020;2024-03-08T14:48:05;27.35;;;14.68;;
31638;SDS011;18248;51.522;7.020;2024-03-08T14:51:04;20.70;;;13.75;;
31638;SDS011;18248;51.522;7.020;2024-03-08T14:54:02;23.90;;;15.18;;
31638;SDS011;18248;51.522;7.020;2024-03-08T14:57:04;26.00;;;15.30;;
31638;SDS011;18248;51.522;7.020;2024-03-08T15:00:04;23.00;;;13.38;;
31638;SDS011;18248;51.522;7.020;2024-03-08T15:03:05;24.95;;;15.38;;
31638;SDS011;18248;51.522;7.020;2024-03-08T15:06:04;21.00;;;13.68;;
31638;SDS011;18248;51.522;7.020;2024-03-08T15:09:07;21.60;;;14.73;;
31638;SDS011;18248;51.522;7.020;2024-03-08T15:12:10;22.77;;;14.02;;
31638;SDS011;18248;51.522;7.020;2024-03-08T15:15:08;22.05;;;13.98;;
31638;SDS011;18248;51.522;7.020;2024-03-08T15:18:09;20.08;;;13.95;;
31638;SDS011;18248;51.522;7.020;2024-03-08T15:21:10;23.08;;;14.35;;
31638;SDS011;18248;51.522;7.020;2024-03-08T15:24:10;20.88;;;14.43;;
31638;SDS011;18248;51.522;7.020;2024-03-08T15:27:13;20.87;;;14.53;;
31638;SDS011;18248;51.522;7.020;2024-03-08T15:30:11;23.33;;;15.45;;
31638;SDS011;18248;51.522;7.020;2024-03-08T15:33:11;25.27;;;15.30;;
31638;SDS011;18248;51.522;7.020;2024-03-08T15:36:11;27.40;;;17.30;;
31638;SDS011;18248;51.522;7.020;2024-03-08T15:39:12;29.60;;;16.67;;
31638;SDS011;18248;51.522;7.020;2024-03-08T15:42:11;31.77;;;18.50;;
31638;SDS011;18248;51.522;7.020;2024-03-08T15:45:09;25.52;;;16.67;;
31638;SDS011;18248;51.522;7.020;2024-03-08T15:48:09;25.90;;;17.45;;
31638;SDS011;18248;51.522;7.020;2024-03-08T15:51:08;24.92;;;16.30;;
31638;SDS011;18248;51.522;7.020;2024-03-08T15:54:11;26.25;;;16.88;;
31638;SDS011;18248;51.522;7.020;2024-03-08T15:57:09;29.30;;;18.17;;
31638;SDS011;18248;51.522;7.020;2024-03-08T16:00:12;32.65;;;19.52;;
31638;SDS011;18248;51.522;7.020;2024-03-08T16:03:14;38.90;;;20.40;;
31638;SDS011;18248;51.522;7.020;2024-03-08T16:06:13;36.35;;;19.15;;
31638;SDS011;18248;51.522;7.020;2024-03-08T16:09:11;34.05;;;19.15;;
31638;SDS011;18248;51.522;7.020;2024-03-08T16:12:13;31.15;;;17.13;;
31638;SDS011;18248;51.522;7.020;2024-03-08T16:15:13;32.22;;;18.63;;
31638;SDS011;18248;51.522;7.020;2024-03-08T16:18:12;30.48;;;17.98;;
31638;SDS011;18248;51.522;7.020;2024-03-08T16:21:11;30.75;;;20.02;;
31638;SDS011;18248;51.522;7.020;2024-03-08T16:24:10;29.85;;;17.42;;
31638;SDS011;18248;51.522;7.020;2024-03-08T16:27:08;27.98;;;16.08;;
31638;SDS011;18248;51.522;7.020;2024-03-08T16:30:07;26.90;;;17.45;;
31638;SDS011;18248;51.522;7.020;2024-03-08T16:33:08;32.38;;;19.20;;
31638;SDS011;18248;51.522;7.020;2024-03-08T16:36:06;29.00;;;16.88;;
31638;SDS011;18248;51.522;7.020;2024-03-08T16:39:05;33.20;;;19.50;;
31638;SDS011;18248;51.522;7.020;2024-03-08T16:42:04;28.10;;;18.27;;
31638;SDS011;18248;51.522;7.020;2024-03-08T16:45:05;22.27;;;14.13;;
31638;SDS011;18248;51.522;7.020;2024-03-08T16:48:05;21.75;;;13.07;;
31638;SDS011;18248;51.522;7.020;2024-03-08T16:51:04;18.30;;;11.88;;
31638;SDS011;18248;51.522;7.020;2024-03-08T16:54:06;21.38;;;11.77;;
31638;SDS011;18248;51.522;7.020;2024-03-08T16:57:06;22.38;;;13.50;;
31638;SDS011;18248;51.522;7.020;2024-03-08T17:00:05;24.55;;;15.30;;
31638;SDS011;18248;51.522;7.020;2024-03-08T17:03:04;26.33;;;14.68;;
31638;SDS011;18248;51.522;7.020;2024-03-08T17:06:05;23.48;;;15.45;;
31638;SDS011;18248;51.522;7.020;2024-03-08T17:09:03;22.60;;;13.95;;
31638;SDS011;18248;51.522;7.020;2024-03-08T17:12:08;27.38;;;15.45;;
31638;SDS011;18248;51.522;7.020;2024-03-08T17:15:08;23.00;;;14.02;;
31638;SDS011;18248;51.522;7.020;2024-03-08T17:18:09;20.85;;;12.30;;
31638;SDS011;18248;51.522;7.020;2024-03-08T17:21:08;21.02;;;12.75;;
31638;SDS011;18248;51.522;7.020;2024-03-08T17:24:10;22.20;;;13.50;;
31638;SDS011;18248;51.522;7.020;2024-03-08T17:27:09;21.15;;;11.80;;
31638;SDS011;18248;51.522;7.020;2024-03-08T17:30:08;24.50;;;13.98;;
31638;SDS011;18248;51.522;7.020;2024-03-08T17:33:17;22.15;;;13.30;;
31638;SDS011;18248;51.522;7.020;2024-03-08T17:36:19;18.38;;;11.70;;
31638;SDS011;18248;51.522;7.020;2024-03-08T17:39:18;25.45;;;14.02;;
31638;SDS011;18248;51.522;7.020;2024-03-08T17:42:16;22.67;;;14.05;;
31638;SDS011;18248;51.522;7.020;2024-03-08T17:45:17;26.05;;;13.05;;
31638;SDS011;18248;51.522;7.020;2024-03-08T17:48:19;22.00;;;13.32;;
31638;SDS011;18248;51.522;7.020;2024-03-08T17:51:19;22.13;;;13.27;;
31638;SDS011;18248;51.522;7.020;2024-03-08T17:54:17;22.60;;;13.25;;
31638;SDS011;18248;51.522;7.020;2024-03-08T17:57:17;24.30;;;12.18;;
31638;SDS011;18248;51.522;7.020;2024-03-08T18:00:20;24.50;;;13.95;;
31638;SDS011;18248;51.522;7.020;2024-03-08T18:03:35;22.67;;;12.68;;
31638;SDS011;18248;51.522;7.020;2024-03-08T18:06:35;27.33;;;14.80;;
31638;SDS011;18248;51.522;7.020;2024-03-08T18:09:38;29.30;;;15.18;;
31638;SDS011;18248;51.522;7.020;2024-03-08T18:12:37;40.67;;;20.92;;
31638;SDS011;18248;51.522;7.020;2024-03-08T18:15:35;35.65;;;19.42;;